sensor_id;sensor_type;location;lat;lon;timestamp;pressure;altitude;pressure_sealevel;temperature;humidity
73501;BME280;61721;42.206;25.320;2022-07-21T00:00:19;99635.63;;;22.85;40.87
73501;BME280;61721;42.206;25.320;2022-07-21T00:02:47;99637.34;;;22.79;41.27
73501;BME280;61721;42.206;25.320;2022-07-21T00:05:14;99625.75;;;22.84;41.38
73501;BME280;61721;42.206;25.320;2022-07-21T00:07:42;99634.16;;;22.82;41.31
73501;BME280;61721;42.206;25.320;2022-07-21T00:10:12;99637.09;;;22.81;41.47
73501;BME280;61721;42.206;25.320;2022-07-21T00:12:40;99632.31;;;22.76;41.63
73501;BME280;61721;42.206;25.320;2022-07-21T00:15:10;99636.97;;;22.69;42.11
73501;BME280;61721;42.206;25.320;2022-07-21T00:17:38;99640.13;;;22.66;42.59
73501;BME280;61721;42.206;25.320;2022-07-21T00:20:07;99638.31;;;22.60;42.34
73501;BME280;61721;42.206;25.320;2022-07-21T00:22:36;99631.00;;;22.54;42.65
73501;BME280;61721;42.206;25.320;2022-07-21T00:25:05;99644.22;;;22.50;43.21
73501;BME280;61721;42.206;25.320;2022-07-21T00:27:32;99641.31;;;22.45;43.41
73501;BME280;61721;42.206;25.320;2022-07-21T00:30:00;99632.16;;;22.40;43.79
73501;BME280;61721;42.206;25.320;2022-07-21T00:32:29;99633.09;;;22.21;43.97
73501;BME280;61721;42.206;25.320;2022-07-21T00:34:56;99639.00;;;22.17;43.85
73501;BME280;61721;42.206;25.320;2022-07-21T00:37:24;99638.63;;;22.07;43.64
73501;BME280;61721;42.206;25.320;2022-07-21T00:39:52;99640.38;;;21.95;44.40
73501;BME280;61721;42.206;25.320;2022-07-21T00:42:21;99646.22;;;21.92;44.56
73501;BME280;61721;42.206;25.320;2022-07-21T00:44:49;99638.72;;;21.88;44.91
73501;BME280;61721;42.206;25.320;2022-07-21T00:47:19;99634.78;;;21.77;45.22
73501;BME280;61721;42.206;25.320;2022-07-21T00:49:48;99638.78;;;21.68;44.93
73501;BME280;61721;42.206;25.320;2022-07-21T00:52:15;99645.50;;;21.59;45.35
73501;BME280;61721;42.206;25.320;2022-07-21T00:54:43;99640.31;;;21.51;45.68
73501;BME280;61721;42.206;25.320;2022-07-21T00:57:12;99641.78;;;21.47;45.83
73501;BME280;61721;42.206;25.320;2022-07-21T00:59:40;99633.81;;;21.45;46.08
73501;BME280;61721;42.206;25.320;2022-07-21T01:02:08;99632.16;;;21.44;46.28
73501;BME280;61721;42.206;25.320;2022-07-21T01:04:36;99631.56;;;21.36;46.14
73501;BME280;61721;42.206;25.320;2022-07-21T01:07:05;99631.34;;;21.30;46.34
73501;BME280;61721;42.206;25.320;2022-07-21T01:09:34;99628.88;;;21.22;46.15
73501;BME280;61721;42.206;25.320;2022-07-21T01:12:03;99630.97;;;21.20;46.41
73501;BME280;61721;42.206;25.320;2022-07-21T01:14:31;99626.56;;;21.19;46.58
73501;BME280;61721;42.206;25.320;2022-07-21T01:17:00;99634.28;;;21.09;46.73
73501;BME280;61721;42.206;25.320;2022-07-21T01:19:28;99621.13;;;21.06;47.21
73501;BME280;61721;42.206;25.320;2022-07-21T01:21:58;99622.16;;;20.99;47.04
73501;BME280;61721;42.206;25.320;2022-07-21T01:24:26;99625.13;;;20.97;46.93
73501;BME280;61721;42.206;25.320;2022-07-21T01:26:54;99617.16;;;20.96;47.39
73501;BME280;61721;42.206;25.320;2022-07-21T01:29:21;99620.50;;;20.91;47.21
73501;BME280;61721;42.206;25.320;2022-07-21T01:31:49;99626.56;;;20.93;47.57
73501;BME280;61721;42.206;25.320;2022-07-21T01:34:17;99617.59;;;20.92;47.42
73501;BME280;61721;42.206;25.320;2022-07-21T01:36:45;99620.31;;;20.92;47.35
73501;BME280;61721;42.206;25.320;2022-07-21T01:39:14;99620.50;;;20.84;47.25
73501;BME280;61721;42.206;25.320;2022-07-21T01:41:59;99616.34;;;20.82;47.43
73501;BME280;61721;42.206;25.320;2022-07-21T01:44:26;99620.09;;;20.81;47.29
73501;BME280;61721;42.206;25.320;2022-07-21T01:46:54;99626.81;;;20.72;47.20
73501;BME280;61721;42.206;25.320;2022-07-21T01:49:22;99619.69;;;20.71;47.63
73501;BME280;61721;42.206;25.320;2022-07-21T01:51:50;99625.53;;;20.68;47.94
73501;BME280;61721;42.206;25.320;2022-07-21T01:54:19;99623.03;;;20.60;47.93
73501;BME280;61721;42.206;25.320;2022-07-21T01:56:46;99623.44;;;20.50;48.29
73501;BME280;61721;42.206;25.320;2022-07-21T01:59:13;99634.72;;;20.54;48.66
73501;BME280;61721;42.206;25.320;2022-07-21T02:01:41;99625.09;;;20.44;48.90
73501;BME280;61721;42.206;25.320;2022-07-21T02:04:08;99625.31;;;20.36;49.12
73501;BME280;61721;42.206;25.320;2022-07-21T02:06:35;99624.66;;;20.34;49.13
73501;BME280;61721;42.206;25.320;2022-07-21T02:09:03;99622.59;;;20.36;49.16
73501;BME280;61721;42.206;25.320;2022-07-21T02:11:34;99617.56;;;20.33;48.99
73501;BME280;61721;42.206;25.320;2022-07-21T02:14:01;99623.38;;;20.30;48.94
73501;BME280;61721;42.206;25.320;2022-07-21T02:16:29;99610.44;;;20.32;49.22
73501;BME280;61721;42.206;25.320;2022-07-21T02:18:56;99611.88;;;20.28;49.23
73501;BME280;61721;42.206;25.320;2022-07-21T02:21:23;99616.25;;;20.16;49.40
73501;BME280;61721;42.206;25.320;2022-07-21T02:23:51;99611.63;;;20.17;49.56
73501;BME280;61721;42.206;25.320;2022-07-21T02:26:18;99604.53;;;20.16;49.69
73501;BME280;61721;42.206;25.320;2022-07-21T02:28:47;99604.97;;;20.19;49.80
73501;BME280;61721;42.206;25.320;2022-07-21T02:31:14;99604.53;;;20.09;49.94
73501;BME280;61721;42.206;25.320;2022-07-21T02:33:42;99604.72;;;20.07;50.18
73501;BME280;61721;42.206;25.320;2022-07-21T02:36:09;99607.03;;;20.04;50.13
73501;BME280;61721;42.206;25.320;2022-07-21T02:38:37;99602.00;;;20.01;49.99
73501;BME280;61721;42.206;25.320;2022-07-21T02:41:04;99599.69;;;19.98;50.27
73501;BME280;61721;42.206;25.320;2022-07-21T02:43:31;99606.16;;;19.90;49.93
73501;BME280;61721;42.206;25.320;2022-07-21T02:46:00;99597.38;;;19.88;50.07
73501;BME280;61721;42.206;25.320;2022-07-21T02:48:27;99594.22;;;19.85;50.16
73501;BME280;61721;42.206;25.320;2022-07-21T02:50:54;99598.41;;;19.81;50.57
73501;BME280;61721;42.206;25.320;2022-07-21T02:53:22;99595.22;;;19.77;50.59
73501;BME280;61721;42.206;25.320;2022-07-21T02:55:50;99601.94;;;19.75;50.69
73501;BME280;61721;42.206;25.320;2022-07-21T02:58:19;99592.75;;;19.76;50.18
73501;BME280;61721;42.206;25.320;2022-07-21T03:00:49;99602.75;;;19.82;50.55
73501;BME280;61721;42.206;25.320;2022-07-21T03:03:19;99602.16;;;19.80;49.98
73501;BME280;61721;42.206;25.320;2022-07-21T03:05:46;99598.63;;;19.86;50.31
73501;BME280;61721;42.206;25.320;2022-07-21T03:08:15;99598.63;;;19.86;50.32
73501;BME280;61721;42.206;25.320;2022-07-21T03:10:42;99592.34;;;19.92;49.97
73501;BME280;61721;42.206;25.320;2022-07-21T03:13:09;99584.00;;;19.93;49.87
73501;BME280;61721;42.206;25.320;2022-07-21T03:15:37;99589.84;;;19.97;49.64
73501;BME280;61721;42.206;25.320;2022-07-21T03:18:05;99588.44;;;20.01;49.38
73501;BME280;61721;42.206;25.320;2022-07-21T03:20:35;99586.13;;;20.04;49.83
73501;BME280;61721;42.206;25.320;2022-07-21T03:23:03;99590.53;;;20.05;49.65
73501;BME280;61721;42.206;25.320;2022-07-21T03:25:31;99582.59;;;20.11;49.96
73501;BME280;61721;42.206;25.320;2022-07-21T03:27:58;99592.38;;;20.12;49.45
73501;BME280;61721;42.206;25.320;2022-07-21T03:30:26;99583.66;;;20.16;49.42
73501;BME280;61721;42.206;25.320;2022-07-21T03:32:54;99588.22;;;20.22;49.23
73501;BME280;61721;42.206;25.320;2022-07-21T03:35:21;99583.25;;;20.26;49.04
73501;BME280;61721;42.206;25.320;2022-07-21T03:37:52;99584.09;;;20.33;48.94
73501;BME280;61721;42.206;25.320;2022-07-21T03:40:23;99587.03;;;20.38;48.72
73501;BME280;61721;42.206;25.320;2022-07-21T03:42:51;99588.91;;;20.44;49.02
73501;BME280;61721;42.206;25.320;2022-07-21T03:45:19;99585.78;;;20.54;49.10
73501;BME280;61721;42.206;25.320;2022-07-21T03:47:46;99586.22;;;20.51;48.49
73501;BME280;61721;42.206;25.320;2022-07-21T03:50:14;99591.22;;;20.54;48.57
73501;BME280;61721;42.206;25.320;2022-07-21T03:52:43;99580.34;;;20.54;48.58
73501;BME280;61721;42.206;25.320;2022-07-21T03:55:12;99582.63;;;20.63;48.51
73501;BME280;61721;42.206;25.320;2022-07-21T03:57:42;99585.38;;;20.70;48.17
73501;BME280;61721;42.206;25.320;2022-07-21T04:00:13;99592.06;;;20.80;48.02
73501;BME280;61721;42.206;25.320;2022-07-21T04:02:41;99588.69;;;20.85;47.69
73501;BME280;61721;42.206;25.320;2022-07-21T04:05:10;99584.09;;;20.92;47.83
73501;BME280;61721;42.206;25.320;2022-07-21T04:07:39;99591.19;;;21.00;48.06
73501;BME280;61721;42.206;25.320;2022-07-21T04:10:08;99593.25;;;21.11;48.16
73501;BME280;61721;42.206;25.320;2022-07-21T04:12:37;99594.13;;;21.18;48.00
73501;BME280;61721;42.206;25.320;2022-07-21T04:15:05;99588.47;;;21.06;47.38
73501;BME280;61721;42.206;25.320;2022-07-21T04:17:34;99578.66;;;20.92;47.73
73501;BME280;61721;42.206;25.320;2022-07-21T04:20:01;99595.81;;;20.86;48.08
73501;BME280;61721;42.206;25.320;2022-07-21T04:22:29;99591.81;;;20.95;48.48
73501;BME280;61721;42.206;25.320;2022-07-21T04:24:57;99592.22;;;21.05;48.87
73501;BME280;61721;42.206;25.320;2022-07-21T04:27:25;99591.59;;;21.03;48.84
73501;BME280;61721;42.206;25.320;2022-07-21T04:29:53;99577.97;;;21.03;49.04
73501;BME280;61721;42.206;25.320;2022-07-21T04:32:21;99588.03;;;21.09;49.13
73501;BME280;61721;42.206;25.320;2022-07-21T04:34:48;99584.50;;;21.15;49.43
73501;BME280;61721;42.206;25.320;2022-07-21T04:37:15;99587.41;;;21.20;49.00
73501;BME280;61721;42.206;25.320;2022-07-21T04:39:42;99593.03;;;21.25;49.41
73501;BME280;61721;42.206;25.320;2022-07-21T04:42:10;99594.28;;;21.36;49.28
73501;BME280;61721;42.206;25.320;2022-07-21T04:44:37;99584.81;;;21.39;49.08
73501;BME280;61721;42.206;25.320;2022-07-21T04:47:06;99589.00;;;21.48;48.98
73501;BME280;61721;42.206;25.320;2022-07-21T04:49:33;99582.25;;;21.57;48.92
73501;BME280;61721;42.206;25.320;2022-07-21T04:52:00;99585.75;;;21.70;49.06
73501;BME280;61721;42.206;25.320;2022-07-21T04:54:27;99589.31;;;21.71;49.16
73501;BME280;61721;42.206;25.320;2022-07-21T04:56:54;99586.78;;;21.76;49.61
73501;BME280;61721;42.206;25.320;2022-07-21T04:59:22;99593.47;;;21.80;49.05
73501;BME280;61721;42.206;25.320;2022-07-21T05:01:50;99587.53;;;21.90;49.87
73501;BME280;61721;42.206;25.320;2022-07-21T05:04:19;99587.13;;;21.93;49.48
73501;BME280;61721;42.206;25.320;2022-07-21T05:06:46;99592.31;;;22.07;48.41
73501;BME280;61721;42.206;25.320;2022-07-21T05:09:13;99588.44;;;22.22;48.87
73501;BME280;61721;42.206;25.320;2022-07-21T05:11:40;99598.63;;;22.33;48.61
73501;BME280;61721;42.206;25.320;2022-07-21T05:14:08;99590.66;;;22.31;48.98
73501;BME280;61721;42.206;25.320;2022-07-21T05:16:35;99600.47;;;22.39;48.44
73501;BME280;61721;42.206;25.320;2022-07-21T05:19:03;99583.84;;;22.47;47.49
73501;BME280;61721;42.206;25.320;2022-07-21T05:21:31;99590.94;;;22.54;48.03
73501;BME280;61721;42.206;25.320;2022-07-21T05:23:58;99599.56;;;22.76;47.50
73501;BME280;61721;42.206;25.320;2022-07-21T05:26:26;99588.53;;;22.89;47.61
73501;BME280;61721;42.206;25.320;2022-07-21T05:28:53;99589.88;;;23.05;47.97
73501;BME280;61721;42.206;25.320;2022-07-21T05:31:20;99596.22;;;23.17;47.00
73501;BME280;61721;42.206;25.320;2022-07-21T05:33:47;99595.28;;;23.30;47.03
73501;BME280;61721;42.206;25.320;2022-07-21T05:36:14;99600.25;;;23.33;46.98
73501;BME280;61721;42.206;25.320;2022-07-21T05:38:43;99595.53;;;23.47;46.86
73501;BME280;61721;42.206;25.320;2022-07-21T05:41:10;99596.22;;;23.60;45.41
73501;BME280;61721;42.206;25.320;2022-07-21T05:43:37;99599.75;;;23.79;45.69
73501;BME280;61721;42.206;25.320;2022-07-21T05:46:05;99594.91;;;23.93;44.97
73501;BME280;61721;42.206;25.320;2022-07-21T05:48:32;99597.50;;;24.06;43.91
73501;BME280;61721;42.206;25.320;2022-07-21T05:50:59;99590.09;;;24.24;43.71
73501;BME280;61721;42.206;25.320;2022-07-21T05:53:26;99596.06;;;24.33;43.29
73501;BME280;61721;42.206;25.320;2022-07-21T05:55:55;99590.97;;;24.37;43.68
73501;BME280;61721;42.206;25.320;2022-07-21T05:58:22;99583.84;;;24.47;43.85
73501;BME280;61721;42.206;25.320;2022-07-21T06:00:50;99584.25;;;24.62;43.05
73501;BME280;61721;42.206;25.320;2022-07-21T06:03:32;99585.47;;;24.90;42.89
73501;BME280;61721;42.206;25.320;2022-07-21T06:05:59;99575.72;;;24.94;42.35
73501;BME280;61721;42.206;25.320;2022-07-21T06:08:30;99584.28;;;25.09;42.07
73501;BME280;61721;42.206;25.320;2022-07-21T06:10:59;99580.81;;;24.90;42.26
73501;BME280;61721;42.206;25.320;2022-07-21T06:13:26;99581.44;;;25.04;42.21
73501;BME280;61721;42.206;25.320;2022-07-21T06:15:53;99574.50;;;25.13;41.48
73501;BME280;61721;42.206;25.320;2022-07-21T06:18:21;99568.66;;;25.09;41.38
73501;BME280;61721;42.206;25.320;2022-07-21T06:20:48;99575.81;;;25.34;41.47
73501;BME280;61721;42.206;25.320;2022-07-21T06:23:15;99579.22;;;25.41;41.00
73501;BME280;61721;42.206;25.320;2022-07-21T06:25:43;99572.16;;;25.68;40.29
73501;BME280;61721;42.206;25.320;2022-07-21T06:28:11;99570.16;;;25.64;39.86
73501;BME280;61721;42.206;25.320;2022-07-21T06:30:39;99573.00;;;25.69;40.15
73501;BME280;61721;42.206;25.320;2022-07-21T06:33:06;99573.47;;;25.66;41.22
73501;BME280;61721;42.206;25.320;2022-07-21T06:35:33;99572.84;;;25.75;40.39
73501;BME280;61721;42.206;25.320;2022-07-21T06:38:01;99573.41;;;25.89;40.79
73501;BME280;61721;42.206;25.320;2022-07-21T06:40:29;99559.38;;;26.02;40.23
73501;BME280;61721;42.206;25.320;2022-07-21T06:42:56;99556.88;;;26.29;39.75
73501;BME280;61721;42.206;25.320;2022-07-21T06:45:25;99556.56;;;26.42;38.84
73501;BME280;61721;42.206;25.320;2022-07-21T06:47:59;99560.06;;;26.54;38.66
73501;BME280;61721;42.206;25.320;2022-07-21T06:50:27;99560.56;;;26.68;38.25
73501;BME280;61721;42.206;25.320;2022-07-21T06:52:54;99555.16;;;26.73;37.08
73501;BME280;61721;42.206;25.320;2022-07-21T06:55:21;99549.44;;;26.91;36.29
73501;BME280;61721;42.206;25.320;2022-07-21T06:57:48;99542.03;;;27.13;36.44
73501;BME280;61721;42.206;25.320;2022-07-21T07:00:16;99543.34;;;27.28;36.37
73501;BME280;61721;42.206;25.320;2022-07-21T07:02:45;99538.63;;;27.45;35.73
73501;BME280;61721;42.206;25.320;2022-07-21T07:05:12;99529.38;;;27.73;35.56
73501;BME280;61721;42.206;25.320;2022-07-21T07:07:40;99530.03;;;27.85;35.25
73501;BME280;61721;42.206;25.320;2022-07-21T07:10:09;99522.41;;;27.92;34.44
73501;BME280;61721;42.206;25.320;2022-07-21T07:12:36;99522.97;;;27.94;34.17
73501;BME280;61721;42.206;25.320;2022-07-21T07:15:05;99518.72;;;28.08;34.41
73501;BME280;61721;42.206;25.320;2022-07-21T07:17:32;99528.50;;;28.21;34.35
73501;BME280;61721;42.206;25.320;2022-07-21T07:20:01;99527.59;;;28.42;33.93
73501;BME280;61721;42.206;25.320;2022-07-21T07:22:29;99527.78;;;28.67;33.80
73501;BME280;61721;42.206;25.320;2022-07-21T07:24:56;99526.56;;;28.80;33.65
73501;BME280;61721;42.206;25.320;2022-07-21T07:27:31;99518.34;;;28.90;33.54
73501;BME280;61721;42.206;25.320;2022-07-21T07:33:26;99518.13;;;29.02;33.94
73501;BME280;61721;42.206;25.320;2022-07-21T07:35:54;99512.19;;;29.20;32.18
73501;BME280;61721;42.206;25.320;2022-07-21T07:38:23;99516.06;;;29.29;33.07
73501;BME280;61721;42.206;25.320;2022-07-21T07:40:50;99506.47;;;29.37;31.79
73501;BME280;61721;42.206;25.320;2022-07-21T07:43:17;99514.81;;;29.52;31.57
73501;BME280;61721;42.206;25.320;2022-07-21T07:45:44;99511.50;;;29.50;31.46
73501;BME280;61721;42.206;25.320;2022-07-21T07:48:12;99512.91;;;29.62;32.41
73501;BME280;61721;42.206;25.320;2022-07-21T07:50:39;99512.38;;;29.65;32.12
73501;BME280;61721;42.206;25.320;2022-07-21T07:53:08;99513.78;;;29.78;31.48
73501;BME280;61721;42.206;25.320;2022-07-21T07:55:35;99508.06;;;29.95;31.19
73501;BME280;61721;42.206;25.320;2022-07-21T07:58:02;99506.97;;;30.01;30.28
73501;BME280;61721;42.206;25.320;2022-07-21T08:00:30;99509.75;;;30.16;30.62
73501;BME280;61721;42.206;25.320;2022-07-21T08:02:57;99504.50;;;30.20;29.69
73501;BME280;61721;42.206;25.320;2022-07-21T08:05:24;99498.72;;;30.31;29.95
73501;BME280;61721;42.206;25.320;2022-07-21T08:07:52;99501.47;;;30.41;29.96
73501;BME280;61721;42.206;25.320;2022-07-21T08:10:20;99498.16;;;30.70;30.52
73501;BME280;61721;42.206;25.320;2022-07-21T08:12:47;99497.31;;;30.79;29.02
73501;BME280;61721;42.206;25.320;2022-07-21T08:15:14;99492.06;;;30.83;29.68
73501;BME280;61721;42.206;25.320;2022-07-21T08:17:42;99496.19;;;30.95;29.80
73501;BME280;61721;42.206;25.320;2022-07-21T08:20:24;99495.56;;;31.29;29.18
73501;BME280;61721;42.206;25.320;2022-07-21T08:22:54;99492.00;;;31.23;29.79
73501;BME280;61721;42.206;25.320;2022-07-21T08:25:43;99490.84;;;31.24;29.07
73501;BME280;61721;42.206;25.320;2022-07-21T08:28:28;99481.06;;;31.52;29.03
73501;BME280;61721;42.206;25.320;2022-07-21T08:31:04;99475.75;;;31.66;28.50
73501;BME280;61721;42.206;25.320;2022-07-21T08:33:32;99480.09;;;31.82;27.67
73501;BME280;61721;42.206;25.320;2022-07-21T08:35:59;99468.47;;;31.80;27.95
73501;BME280;61721;42.206;25.320;2022-07-21T08:38:38;99471.16;;;31.90;27.68
73501;BME280;61721;42.206;25.320;2022-07-21T08:41:12;99471.41;;;31.99;27.85
73501;BME280;61721;42.206;25.320;2022-07-21T08:43:49;99470.88;;;31.92;26.35
73501;BME280;61721;42.206;25.320;2022-07-21T08:46:16;99470.00;;;31.96;26.93
73501;BME280;61721;42.206;25.320;2022-07-21T08:48:45;99457.69;;;32.17;27.24
73501;BME280;61721;42.206;25.320;2022-07-21T08:51:12;99465.38;;;32.25;26.47
73501;BME280;61721;42.206;25.320;2022-07-21T08:53:43;99458.69;;;32.32;26.37
73501;BME280;61721;42.206;25.320;2022-07-21T08:56:12;99461.25;;;32.52;26.28
73501;BME280;61721;42.206;25.320;2022-07-21T08:58:39;99452.03;;;32.61;26.94
73501;BME280;61721;42.206;25.320;2022-07-21T09:01:07;99453.88;;;32.76;25.63
73501;BME280;61721;42.206;25.320;2022-07-21T09:03:34;99444.41;;;32.77;25.58
73501;BME280;61721;42.206;25.320;2022-07-21T09:06:12;99441.00;;;32.85;24.99
73501;BME280;61721;42.206;25.320;2022-07-21T09:08:47;99446.06;;;32.78;26.28
73501;BME280;61721;42.206;25.320;2022-07-21T09:11:21;99444.78;;;32.94;25.57
73501;BME280;61721;42.206;25.320;2022-07-21T09:14:05;99440.63;;;33.16;25.30
73501;BME280;61721;42.206;25.320;2022-07-21T09:16:35;99440.16;;;33.08;24.13
73501;BME280;61721;42.206;25.320;2022-07-21T09:19:06;99434.38;;;33.05;24.40
73501;BME280;61721;42.206;25.320;2022-07-21T09:21:34;99430.78;;;33.04;24.76
73501;BME280;61721;42.206;25.320;2022-07-21T09:24:16;99427.19;;;33.28;24.68
73501;BME280;61721;42.206;25.320;2022-07-21T09:26:58;99426.22;;;33.14;24.83
73501;BME280;61721;42.206;25.320;2022-07-21T09:29:26;99412.59;;;33.41;24.60
73501;BME280;61721;42.206;25.320;2022-07-21T09:32:12;99418.03;;;33.27;24.41
73501;BME280;61721;42.206;25.320;2022-07-21T09:34:40;99415.38;;;33.17;24.57
73501;BME280;61721;42.206;25.320;2022-07-21T09:37:08;99413.78;;;33.35;24.73
73501;BME280;61721;42.206;25.320;2022-07-21T09:39:43;99412.72;;;33.49;24.03
73501;BME280;61721;42.206;25.320;2022-07-21T09:42:21;99409.22;;;33.81;23.83
73501;BME280;61721;42.206;25.320;2022-07-21T09:44:51;99409.81;;;33.78;23.70
73501;BME280;61721;42.206;25.320;2022-07-21T09:47:23;99408.91;;;33.64;23.15
73501;BME280;61721;42.206;25.320;2022-07-21T09:49:51;99408.69;;;33.79;24.26
73501;BME280;61721;42.206;25.320;2022-07-21T09:52:24;99412.19;;;34.04;23.16
73501;BME280;61721;42.206;25.320;2022-07-21T09:54:53;99408.59;;;34.35;23.34
73501;BME280;61721;42.206;25.320;2022-07-21T09:57:23;99396.00;;;34.57;22.77
73501;BME280;61721;42.206;25.320;2022-07-21T09:59:56;99399.16;;;34.50;22.90
73501;BME280;61721;42.206;25.320;2022-07-21T10:02:42;99402.84;;;34.78;23.15
73501;BME280;61721;42.206;25.320;2022-07-21T10:05:27;99400.44;;;34.85;22.26
73501;BME280;61721;42.206;25.320;2022-07-21T10:10:49;99390.88;;;34.91;22.74
73501;BME280;61721;42.206;25.320;2022-07-21T10:13:18;99394.28;;;35.02;22.74
73501;BME280;61721;42.206;25.320;2022-07-21T10:16:04;99389.94;;;34.96;22.80
73501;BME280;61721;42.206;25.320;2022-07-21T10:18:45;99393.56;;;35.10;22.28
73501;BME280;61721;42.206;25.320;2022-07-21T10:21:43;99377.69;;;35.24;22.39
73501;BME280;61721;42.206;25.320;2022-07-21T10:24:52;99385.13;;;35.51;22.30
73501;BME280;61721;42.206;25.320;2022-07-21T10:28:14;99375.84;;;35.55;21.85
73501;BME280;61721;42.206;25.320;2022-07-21T10:30:45;99369.94;;;35.71;21.46
73501;BME280;61721;42.206;25.320;2022-07-21T10:33:15;99367.75;;;35.45;21.21
73501;BME280;61721;42.206;25.320;2022-07-21T10:35:43;99369.47;;;35.55;21.12
73501;BME280;61721;42.206;25.320;2022-07-21T10:38:24;99368.00;;;35.57;20.97
73501;BME280;61721;42.206;25.320;2022-07-21T10:40:59;99365.34;;;35.52;20.06
73501;BME280;61721;42.206;25.320;2022-07-21T10:43:42;99369.88;;;35.84;21.42
73501;BME280;61721;42.206;25.320;2022-07-21T10:46:37;99361.00;;;35.60;20.86
73501;BME280;61721;42.206;25.320;2022-07-21T10:49:10;99366.78;;;35.86;21.49
73501;BME280;61721;42.206;25.320;2022-07-21T10:51:40;99360.44;;;35.94;20.46
73501;BME280;61721;42.206;25.320;2022-07-21T10:54:27;99354.75;;;36.21;20.08
73501;BME280;61721;42.206;25.320;2022-07-21T10:57:27;99355.06;;;36.51;20.56
73501;BME280;61721;42.206;25.320;2022-07-21T11:00:17;99355.66;;;36.39;20.47
73501;BME280;61721;42.206;25.320;2022-07-21T11:06:14;99349.63;;;36.76;20.57
73501;BME280;61721;42.206;25.320;2022-07-21T11:08:43;99338.69;;;36.97;19.42
73501;BME280;61721;42.206;25.320;2022-07-21T11:11:13;99339.91;;;36.74;20.90
73501;BME280;61721;42.206;25.320;2022-07-21T11:14:00;99333.81;;;37.11;19.62
73501;BME280;61721;42.206;25.320;2022-07-21T11:19:38;99329.72;;;37.60;19.50
73501;BME280;61721;42.206;25.320;2022-07-21T11:22:09;99319.38;;;37.26;19.90
73501;BME280;61721;42.206;25.320;2022-07-21T11:24:39;99331.19;;;37.41;19.54
73501;BME280;61721;42.206;25.320;2022-07-21T11:27:07;99333.63;;;37.08;19.26
73501;BME280;61721;42.206;25.320;2022-07-21T11:29:37;99333.63;;;37.16;19.51
73501;BME280;61721;42.206;25.320;2022-07-21T11:32:06;99334.66;;;37.38;19.17
73501;BME280;61721;42.206;25.320;2022-07-21T11:34:40;99332.81;;;37.24;19.78
73501;BME280;61721;42.206;25.320;2022-07-21T11:37:09;99326.78;;;37.57;19.93
73501;BME280;61721;42.206;25.320;2022-07-21T11:39:39;99333.19;;;37.66;18.98
73501;BME280;61721;42.206;25.320;2022-07-21T11:42:09;99327.94;;;37.56;19.38
73501;BME280;61721;42.206;25.320;2022-07-21T11:44:43;99315.44;;;37.28;19.61
73501;BME280;61721;42.206;25.320;2022-07-21T11:47:12;99311.97;;;37.39;19.35
73501;BME280;61721;42.206;25.320;2022-07-21T11:49:42;99298.00;;;37.65;19.51
73501;BME280;61721;42.206;25.320;2022-07-21T11:52:11;99299.81;;;37.78;19.46
73501;BME280;61721;42.206;25.320;2022-07-21T11:54:43;99315.09;;;37.89;18.54
73501;BME280;61721;42.206;25.320;2022-07-21T11:57:11;99304.25;;;37.79;19.14
73501;BME280;61721;42.206;25.320;2022-07-21T11:59:39;99296.28;;;38.16;18.98
73501;BME280;61721;42.206;25.320;2022-07-21T12:02:09;99297.69;;;38.39;18.78
73501;BME280;61721;42.206;25.320;2022-07-21T12:04:43;99293.84;;;38.05;18.47
73501;BME280;61721;42.206;25.320;2022-07-21T12:07:22;99298.53;;;38.31;18.50
73501;BME280;61721;42.206;25.320;2022-07-21T12:09:52;99296.00;;;37.91;18.67
73501;BME280;61721;42.206;25.320;2022-07-21T12:12:37;99288.44;;;37.92;18.18
73501;BME280;61721;42.206;25.320;2022-07-21T12:15:12;99290.16;;;37.58;18.64
73501;BME280;61721;42.206;25.320;2022-07-21T12:17:42;99292.91;;;37.41;19.18
73501;BME280;61721;42.206;25.320;2022-07-21T12:20:12;99284.22;;;37.68;19.07
73501;BME280;61721;42.206;25.320;2022-07-21T12:22:41;99290.31;;;37.28;19.16
73501;BME280;61721;42.206;25.320;2022-07-21T12:25:17;99287.16;;;37.72;19.09
73501;BME280;61721;42.206;25.320;2022-07-21T12:27:46;99271.09;;;38.24;18.36
73501;BME280;61721;42.206;25.320;2022-07-21T12:30:33;99276.25;;;38.51;18.23
73501;BME280;61721;42.206;25.320;2022-07-21T12:33:03;99275.34;;;38.68;18.05
73501;BME280;61721;42.206;25.320;2022-07-21T12:35:33;99275.16;;;38.73;18.57
73501;BME280;61721;42.206;25.320;2022-07-21T12:38:03;99270.56;;;38.69;18.34
73501;BME280;61721;42.206;25.320;2022-07-21T12:40:36;99266.75;;;38.35;18.13
73501;BME280;61721;42.206;25.320;2022-07-21T12:43:11;99268.13;;;38.21;19.43
73501;BME280;61721;42.206;25.320;2022-07-21T12:45:54;99263.28;;;38.09;18.90
73501;BME280;61721;42.206;25.320;2022-07-21T12:48:24;99258.09;;;37.47;19.28
73501;BME280;61721;42.206;25.320;2022-07-21T12:51:09;99265.47;;;37.35;19.92
73501;BME280;61721;42.206;25.320;2022-07-21T12:53:40;99259.56;;;37.45;19.38
73501;BME280;61721;42.206;25.320;2022-07-21T12:56:10;99247.56;;;37.44;18.91
73501;BME280;61721;42.206;25.320;2022-07-21T12:58:38;99254.66;;;37.24;19.54
73501;BME280;61721;42.206;25.320;2022-07-21T13:01:12;99251.69;;;37.30;19.14
73501;BME280;61721;42.206;25.320;2022-07-21T13:03:43;99237.72;;;37.47;19.33
73501;BME280;61721;42.206;25.320;2022-07-21T13:06:13;99230.72;;;37.96;19.32
73501;BME280;61721;42.206;25.320;2022-07-21T13:08:48;99239.78;;;38.01;18.55
73501;BME280;61721;42.206;25.320;2022-07-21T13:11:20;99243.97;;;38.25;18.03
73501;BME280;61721;42.206;25.320;2022-07-21T13:13:49;99230.06;;;38.37;17.81
73501;BME280;61721;42.206;25.320;2022-07-21T13:16:26;99228.06;;;38.46;17.69
73501;BME280;61721;42.206;25.320;2022-07-21T13:18:55;99231.22;;;38.36;18.63